sensor_id;sensor_type;location;lat;lon;timestamp;P1;durP1;ratioP1;P2;durP2;ratioP2
39772;SDS011;25451;51.960;6.250;2024-03-23T00:55:41;7.70;;;3.00;;
39772;SDS011;25451;51.960;6.250;2024-03-23T00:58:07;7.18;;;2.63;;
39772;SDS011;25451;51.960;6.250;2024-03-23T01:00:33;9.73;;;3.13;;
39772;SDS011;25451;51.960;6.250;2024-03-23T01:02:58;7.03;;;2.97;;
39772;SDS011;25451;51.960;6.250;2024-03-23T01:05:24;11.37;;;3.40;;
39772;SDS011;25451;51.960;6.250;2024-03-23T01:07:49;9.03;;;2.83;;
39772;SDS011;25451;51.960;6.250;2024-03-23T01:10:14;11.47;;;3.70;;
39772;SDS011;25451;51.960;6.250;2024-03-23T01:12:40;12.68;;;3.50;;
39772;SDS011;25451;51.960;6.250;2024-03-23T01:15:05;9.90;;;3.00;;
39772;SDS011;25451;51.960;6.250;2024-03-23T01:17:31;9.63;;;3.37;;
39772;SDS011;25451;51.960;6.250;2024-03-23T01:19:56;10.20;;;3.50;;
39772;SDS011;25451;51.960;6.250;2024-03-23T01:22:22;16.20;;;3.50;;
39772;SDS011;25451;51.960;6.250;2024-03-23T01:24:47;12.83;;;3.30;;
39772;SDS011;25451;51.960;6.250;2024-03-23T01:27:12;15.83;;;3.33;;
39772;SDS011;25451;51.960;6.250;2024-03-23T01:29:38;16.47;;;3.93;;
39772;SDS011;25451;51.960;6.250;2024-03-23T01:32:03;10.57;;;3.40;;
39772;SDS011;25451;51.960;6.250;2024-03-23T01:34:29;9.40;;;3.30;;
39772;SDS011;25451;51.960;6.250;2024-03-23T01:36:54;9.40;;;3.17;;
39772;SDS011;25451;51.960;6.250;2024-03-23T01:39:20;12.13;;;4.00;;
39772;SDS011;25451;51.960;6.250;2024-03-23T01:41:45;10.33;;;3.40;;
39772;SDS011;25451;51.960;6.250;2024-03-23T01:44:10;11.93;;;3.50;;
39772;SDS011;25451;51.960;6.250;2024-03-23T01:46:39;10.93;;;3.93;;
39772;SDS011;25451;51.960;6.250;2024-03-23T01:49:06;10.68;;;3.67;;
39772;SDS011;25451;51.960;6.250;2024-03-23T01:51:31;8.50;;;2.97;;
39772;SDS011;25451;51.960;6.250;2024-03-23T01:53:57;11.93;;;3.53;;
39772;SDS011;25451;51.960;6.250;2024-03-23T01:56:25;14.35;;;4.00;;
39772;SDS011;25451;51.960;6.250;2024-03-23T01:58:51;13.07;;;3.65;;
39772;SDS011;25451;51.960;6.250;2024-03-23T02:01:16;9.23;;;3.80;;
39772;SDS011;25451;51.960;6.250;2024-03-23T02:03:41;12.70;;;3.73;;
39772;SDS011;25451;51.960;6.250;2024-03-23T02:06:07;14.77;;;3.40;;
39772;SDS011;25451;51.960;6.250;2024-03-23T02:08:33;12.13;;;3.65;;
39772;SDS011;25451;51.960;6.250;2024-03-23T02:10:59;14.60;;;3.73;;
39772;SDS011;25451;51.960;6.250;2024-03-23T02:13:24;16.33;;;3.40;;
39772;SDS011;25451;51.960;6.250;2024-03-23T02:15:50;11.85;;;3.40;;
39772;SDS011;25451;51.960;6.250;2024-03-23T02:18:15;11.13;;;3.00;;
39772;SDS011;25451;51.960;6.250;2024-03-23T02:20:40;11.80;;;3.42;;
39772;SDS011;25451;51.960;6.250;2024-03-23T02:23:10;11.50;;;3.13;;
39772;SDS011;25451;51.960;6.250;2024-03-23T02:25:38;10.70;;;3.30;;
39772;SDS011;25451;51.960;6.250;2024-03-23T02:28:03;9.77;;;3.63;;
39772;SDS011;25451;51.960;6.250;2024-03-23T02:30:29;11.33;;;3.30;;
39772;SDS011;25451;51.960;6.250;2024-03-23T02:32:55;10.35;;;3.30;;
39772;SDS011;25451;51.960;6.250;2024-03-23T02:35:20;9.33;;;3.50;;
39772;SDS011;25451;51.960;6.250;2024-03-23T02:37:46;7.83;;;3.20;;
39772;SDS011;25451;51.960;6.250;2024-03-23T02:40:13;10.38;;;3.00;;
39772;SDS011;25451;51.960;6.250;2024-03-23T02:42:38;10.90;;;3.10;;
39772;SDS011;25451;51.960;6.250;2024-03-23T02:45:03;11.83;;;3.23;;
39772;SDS011;25451;51.960;6.250;2024-03-23T02:47:30;11.82;;;3.30;;
39772;SDS011;25451;51.960;6.250;2024-03-23T02:49:55;7.77;;;3.30;;
39772;SDS011;25451;51.960;6.250;2024-03-23T02:52:20;11.53;;;3.27;;
39772;SDS011;25451;51.960;6.250;2024-03-23T02:54:46;9.60;;;2.83;;
39772;SDS011;25451;51.960;6.250;2024-03-23T02:57:11;9.17;;;3.27;;
39772;SDS011;25451;51.960;6.250;2024-03-23T02:59:36;13.80;;;3.70;;
39772;SDS011;25451;51.960;6.250;2024-03-23T03:02:01;11.27;;;3.13;;
39772;SDS011;25451;51.960;6.250;2024-03-23T03:04:29;9.70;;;3.17;;
39772;SDS011;25451;51.960;6.250;2024-03-23T03:06:54;10.93;;;3.27;;
39772;SDS011;25451;51.960;6.250;2024-03-23T03:09:20;13.70;;;3.53;;
39772;SDS011;25451;51.960;6.250;2024-03-23T03:11:46;12.30;;;3.30;;
39772;SDS011;25451;51.960;6.250;2024-03-23T03:14:11;11.83;;;3.30;;
39772;SDS011;25451;51.960;6.250;2024-03-23T03:16:37;12.95;;;3.20;;
39772;SDS011;25451;51.960;6.250;2024-03-23T03:19:02;12.60;;;2.90;;
39772;SDS011;25451;51.960;6.250;2024-03-23T03:21:28;8.23;;;2.97;;
39772;SDS011;25451;51.960;6.250;2024-03-23T03:23:53;10.40;;;3.30;;
39772;SDS011;25451;51.960;6.250;2024-03-23T03:26:21;11.13;;;3.10;;
39772;SDS011;25451;51.960;6.250;2024-03-23T03:28:46;8.70;;;2.70;;
39772;SDS011;25451;51.960;6.250;2024-03-23T03:31:15;12.20;;;3.15;;
39772;SDS011;25451;51.960;6.250;2024-03-23T03:33:41;12.35;;;3.10;;
39772;SDS011;25451;51.960;6.250;2024-03-23T03:36:07;7.88;;;2.90;;
39772;SDS011;25451;51.960;6.250;2024-03-23T03:38:32;11.87;;;3.40;;
39772;SDS011;25451;51.960;6.250;2024-03-23T03:41:00;9.70;;;3.20;;
39772;SDS011;25451;51.960;6.250;2024-03-23T03:43:25;11.30;;;3.87;;
39772;SDS011;25451;51.960;6.250;2024-03-23T03:45:51;9.73;;;3.20;;
39772;SDS011;25451;51.960;6.250;2024-03-23T03:48:17;12.13;;;3.40;;
39772;SDS011;25451;51.960;6.250;2024-03-23T03:50:42;9.40;;;3.23;;
39772;SDS011;25451;51.960;6.250;2024-03-23T03:53:08;9.40;;;3.27;;
39772;SDS011;25451;51.960;6.250;2024-03-23T03:55:33;10.20;;;3.90;;
39772;SDS011;25451;51.960;6.250;2024-03-23T03:57:58;11.93;;;3.13;;
39772;SDS011;25451;51.960;6.250;2024-03-23T04:00:23;10.37;;;3.60;;
39772;SDS011;25451;51.960;6.250;2024-03-23T04:02:49;11.47;;;3.47;;
39772;SDS011;25451;51.960;6.250;2024-03-23T04:05:14;14.93;;;3.70;;
39772;SDS011;25451;51.960;6.250;2024-03-23T04:07:39;14.23;;;4.17;;
39772;SDS011;25451;51.960;6.250;2024-03-23T04:10:05;8.97;;;3.20;;
39772;SDS011;25451;51.960;6.250;2024-03-23T04:12:32;10.98;;;3.90;;
39772;SDS011;25451;51.960;6.250;2024-03-23T04:14:58;14.52;;;4.03;;
39772;SDS011;25451;51.960;6.250;2024-03-23T04:17:23;12.05;;;3.97;;
39772;SDS011;25451;51.960;6.250;2024-03-23T04:19:50;10.80;;;4.37;;
39772;SDS011;25451;51.960;6.250;2024-03-23T04:22:17;11.30;;;3.75;;
39772;SDS011;25451;51.960;6.250;2024-03-23T04:24:42;13.00;;;3.67;;
39772;SDS011;25451;51.960;6.250;2024-03-23T04:27:08;10.87;;;3.83;;
39772;SDS011;25451;51.960;6.250;2024-03-23T04:29:33;13.70;;;3.80;;
39772;SDS011;25451;51.960;6.250;2024-03-23T04:31:58;11.60;;;3.83;;
39772;SDS011;25451;51.960;6.250;2024-03-23T04:34:24;9.87;;;3.80;;
39772;SDS011;25451;51.960;6.250;2024-03-23T04:36:49;12.60;;;3.90;;
39772;SDS011;25451;51.960;6.250;2024-03-23T04:39:15;12.83;;;4.37;;
39772;SDS011;25451;51.960;6.250;2024-03-23T04:41:40;10.70;;;4.55;;
39772;SDS011;25451;51.960;6.250;2024-03-23T04:44:05;13.07;;;4.43;;
39772;SDS011;25451;51.960;6.250;2024-03-23T04:46:31;12.97;;;4.60;;
39772;SDS011;25451;51.960;6.250;2024-03-23T04:48:56;14.20;;;4.53;;
39772;SDS011;25451;51.960;6.250;2024-03-23T04:51:24;17.57;;;5.50;;
39772;SDS011;25451;51.960;6.250;2024-03-23T04:53:50;12.05;;;4.70;;
39772;SDS011;25451;51.960;6.250;2024-03-23T04:56:16;12.67;;;4.83;;
39772;SDS011;25451;51.960;6.250;2024-03-23T04:58:44;12.02;;;4.90;;
39772;SDS011;25451;51.960;6.250;2024-03-23T05:01:10;11.10;;;4.00;;
39772;SDS011;25451;51.960;6.250;2024-03-23T05:03:36;16.33;;;5.15;;
39772;SDS011;25451;51.960;6.250;2024-03-23T05:06:01;14.03;;;4.80;;
39772;SDS011;25451;51.960;6.250;2024-03-23T05:08:26;13.40;;;4.70;;
39772;SDS011;25451;51.960;6.250;2024-03-23T05:10:51;13.67;;;4.73;;
39772;SDS011;25451;51.960;6.250;2024-03-23T05:13:17;10.70;;;4.43;;
39772;SDS011;25451;51.960;6.250;2024-03-23T05:15:43;10.98;;;4.13;;
39772;SDS011;25451;51.960;6.250;2024-03-23T05:18:08;13.07;;;4.43;;
39772;SDS011;25451;51.960;6.250;2024-03-23T05:20:33;13.53;;;5.00;;
39772;SDS011;25451;51.960;6.250;2024-03-23T05:22:58;13.03;;;4.20;;
39772;SDS011;25451;51.960;6.250;2024-03-23T05:25:24;12.17;;;3.97;;
39772;SDS011;25451;51.960;6.250;2024-03-23T05:27:49;13.20;;;4.37;;
39772;SDS011;25451;51.960;6.250;2024-03-23T05:30:14;11.33;;;3.67;;
39772;SDS011;25451;51.960;6.250;2024-03-23T05:32:40;11.77;;;4.10;;
39772;SDS011;25451;51.960;6.250;2024-03-23T05:35:07;11.07;;;3.92;;
39772;SDS011;25451;51.960;6.250;2024-03-23T05:37:33;9.73;;;3.47;;
39772;SDS011;25451;51.960;6.250;2024-03-23T05:40:02;10.85;;;3.85;;
39772;SDS011;25451;51.960;6.250;2024-03-23T05:42:28;10.77;;;3.80;;
39772;SDS011;25451;51.960;6.250;2024-03-23T05:44:54;10.55;;;3.83;;
39772;SDS011;25451;51.960;6.250;2024-03-23T05:47:19;9.05;;;3.28;;
39772;SDS011;25451;51.960;6.250;2024-03-23T05:49:45;11.48;;;3.42;;
39772;SDS011;25451;51.960;6.250;2024-03-23T05:52:11;12.70;;;3.50;;
39772;SDS011;25451;51.960;6.250;2024-03-23T05:54:37;11.95;;;3.20;;
39772;SDS011;25451;51.960;6.250;2024-03-23T05:57:02;9.67;;;3.00;;
39772;SDS011;25451;51.960;6.250;2024-03-23T05:59:28;7.33;;;2.87;;
39772;SDS011;25451;51.960;6.250;2024-03-23T06:01:53;10.73;;;3.00;;
39772;SDS011;25451;51.960;6.250;2024-03-23T06:04:19;10.97;;;2.53;;
39772;SDS011;25451;51.960;6.250;2024-03-23T06:06:44;8.67;;;2.70;;
39772;SDS011;25451;51.960;6.250;2024-03-23T06:09:10;9.32;;;2.70;;
39772;SDS011;25451;51.960;6.250;2024-03-23T06:11:35;9.80;;;2.43;;
39772;SDS011;25451;51.960;6.250;2024-03-23T06:14:01;8.30;;;2.70;;
39772;SDS011;25451;51.960;6.250;2024-03-23T06:16:26;9.53;;;2.27;;
39772;SDS011;25451;51.960;6.250;2024-03-23T06:18:52;12.15;;;2.45;;
39772;SDS011;25451;51.960;6.250;2024-03-23T06:21:18;8.60;;;2.23;;
39772;SDS011;25451;51.960;6.250;2024-03-23T06:23:44;8.30;;;2.67;;
39772;SDS011;25451;51.960;6.250;2024-03-23T06:26:16;8.30;;;2.60;;
39772;SDS011;25451;51.960;6.250;2024-03-23T06:28:42;7.63;;;2.15;;
39772;SDS011;25451;51.960;6.250;2024-03-23T06:31:11;11.13;;;2.37;;
39772;SDS011;25451;51.960;6.250;2024-03-23T06:33:37;10.90;;;2.38;;
39772;SDS011;25451;51.960;6.250;2024-03-23T06:36:03;9.23;;;2.20;;
39772;SDS011;25451;51.960;6.250;2024-03-23T06:38:33;8.82;;;1.90;;
39772;SDS011;25451;51.960;6.250;2024-03-23T06:40:59;8.98;;;2.30;;
39772;SDS011;25451;51.960;6.250;2024-03-23T06:43:27;6.85;;;2.05;;
39772;SDS011;25451;51.960;6.250;2024-03-23T06:45:55;9.57;;;2.40;;
39772;SDS011;25451;51.960;6.250;2024-03-23T06:48:21;12.40;;;2.57;;
39772;SDS011;25451;51.960;6.250;2024-03-23T06:50:47;6.53;;;1.80;;
39772;SDS011;25451;51.960;6.250;2024-03-23T06:53:13;13.48;;;2.50;;
39772;SDS011;25451;51.960;6.250;2024-03-23T06:55:39;6.05;;;1.48;;
39772;SDS011;25451;51.960;6.250;2024-03-23T06:58:04;9.13;;;2.00;;
39772;SDS011;25451;51.960;6.250;2024-03-23T07:00:30;9.07;;;1.90;;
39772;SDS011;25451;51.960;6.250;2024-03-23T07:02:55;6.97;;;1.53;;
39772;SDS011;25451;51.960;6.250;2024-03-23T07:05:20;10.23;;;2.10;;
39772;SDS011;25451;51.960;6.250;2024-03-23T07:07:46;9.60;;;2.08;;
39772;SDS011;25451;51.960;6.250;2024-03-23T07:10:11;6.23;;;1.60;;
39772;SDS011;25451;51.960;6.250;2024-03-23T07:12:36;10.40;;;2.10;;
39772;SDS011;25451;51.960;6.250;2024-03-23T07:15:02;8.87;;;1.60;;
39772;SDS011;25451;51.960;6.250;2024-03-23T07:17:28;10.37;;;2.03;;
39772;SDS011;25451;51.960;6.250;2024-03-23T07:19:53;8.85;;;2.20;;
39772;SDS011;25451;51.960;6.250;2024-03-23T07:22:18;10.30;;;1.90;;
39772;SDS011;25451;51.960;6.250;2024-03-23T07:24:44;8.03;;;1.93;;
39772;SDS011;25451;51.960;6.250;2024-03-23T07:27:09;9.90;;;2.20;;
39772;SDS011;25451;51.960;6.250;2024-03-23T07:29:35;6.33;;;1.80;;
39772;SDS011;25451;51.960;6.250;2024-03-23T07:32:01;6.20;;;1.90;;
39772;SDS011;25451;51.960;6.250;2024-03-23T07:34:26;9.20;;;1.97;;
39772;SDS011;25451;51.960;6.250;2024-03-23T07:36:51;6.88;;;2.17;;
39772;SDS011;25451;51.960;6.250;2024-03-23T07:39:17;10.20;;;1.95;;
39772;SDS011;25451;51.960;6.250;2024-03-23T07:41:44;10.07;;;1.93;;
39772;SDS011;25451;51.960;6.250;2024-03-23T07:44:10;8.20;;;1.87;;
39772;SDS011;25451;51.960;6.250;2024-03-23T07:46:35;6.90;;;2.10;;
39772;SDS011;25451;51.960;6.250;2024-03-23T07:49:01;7.47;;;1.93;;
39772;SDS011;25451;51.960;6.250;2024-03-23T07:51:26;6.23;;;2.10;;
39772;SDS011;25451;51.960;6.250;2024-03-23T07:53:51;5.20;;;1.77;;
39772;SDS011;25451;51.960;6.250;2024-03-23T07:56:19;7.47;;;1.65;;
39772;SDS011;25451;51.960;6.250;2024-03-23T07:58:46;8.48;;;1.88;;
39772;SDS011;25451;51.960;6.250;2024-03-23T08:01:13;9.27;;;1.93;;
39772;SDS011;25451;51.960;6.250;2024-03-23T08:03:41;7.65;;;1.92;;
39772;SDS011;25451;51.960;6.250;2024-03-23T08:08:40;10.95;;;2.10;;
39772;SDS011;25451;51.960;6.250;2024-03-23T08:11:07;8.75;;;2.28;;
39772;SDS011;25451;51.960;6.250;2024-03-23T08:13:33;12.37;;;2.63;;
39772;SDS011;25451;51.960;6.250;2024-03-23T08:16:00;6.97;;;2.20;;
39772;SDS011;25451;51.960;6.250;2024-03-23T08:18:26;8.63;;;2.00;;
39772;SDS011;25451;51.960;6.250;2024-03-23T08:21:02;9.60;;;2.33;;
39772;SDS011;25451;51.960;6.250;2024-03-23T08:23:29;8.35;;;1.92;;
39772;SDS011;25451;51.960;6.250;2024-03-23T08:25:58;12.32;;;2.88;;
39772;SDS011;25451;51.960;6.250;2024-03-23T08:28:24;9.32;;;2.35;;
39772;SDS011;25451;51.960;6.250;2024-03-23T08:30:50;9.63;;;1.95;;
39772;SDS011;25451;51.960;6.250;2024-03-23T08:33:16;8.60;;;2.33;;
39772;SDS011;25451;51.960;6.250;2024-03-23T08:35:41;10.35;;;2.40;;
39772;SDS011;25451;51.960;6.250;2024-03-23T08:38:06;8.53;;;2.57;;
39772;SDS011;25451;51.960;6.250;2024-03-23T08:40:32;8.47;;;2.40;;
39772;SDS011;25451;51.960;6.250;2024-03-23T08:42:57;10.33;;;2.17;;
39772;SDS011;25451;51.960;6.250;2024-03-23T08:45:24;8.80;;;2.10;;
39772;SDS011;25451;51.960;6.250;2024-03-23T08:47:52;7.13;;;2.10;;
39772;SDS011;25451;51.960;6.250;2024-03-23T08:50:17;10.67;;;1.97;;
39772;SDS011;25451;51.960;6.250;2024-03-23T08:52:43;8.17;;;2.03;;
39772;SDS011;25451;51.960;6.250;2024-03-23T08:55:09;8.05;;;1.98;;
39772;SDS011;25451;51.960;6.250;2024-03-23T08:57:35;7.80;;;2.05;;
39772;SDS011;25451;51.960;6.250;2024-03-23T09:00:00;6.67;;;1.70;;
39772;SDS011;25451;51.960;6.250;2024-03-23T09:02:25;6.57;;;1.87;;
39772;SDS011;25451;51.960;6.250;2024-03-23T09:04:51;8.80;;;1.80;;
39772;SDS011;25451;51.960;6.250;2024-03-23T09:07:16;8.90;;;2.00;;
39772;SDS011;25451;51.960;6.250;2024-03-23T09:09:41;5.73;;;1.73;;
39772;SDS011;25451;51.960;6.250;2024-03-23T09:12:06;8.00;;;1.57;;
39772;SDS011;25451;51.960;6.250;2024-03-23T09:14:33;6.50;;;1.50;;
39772;SDS011;25451;51.960;6.250;2024-03-23T09:16:59;12.87;;;2.50;;
39772;SDS011;25451;51.960;6.250;2024-03-23T09:19:26;6.13;;;1.60;;
39772;SDS011;25451;51.960;6.250;2024-03-23T09:21:53;7.18;;;1.50;;
39772;SDS011;25451;51.960;6.250;2024-03-23T09:24:18;8.33;;;1.40;;
39772;SDS011;25451;51.960;6.250;2024-03-23T09:26:43;6.20;;;1.63;;
39772;SDS011;25451;51.960;6.250;2024-03-23T09:29:09;8.20;;;1.60;;
39772;SDS011;25451;51.960;6.250;2024-03-23T09:31:34;10.43;;;1.60;;
39772;SDS011;25451;51.960;6.250;2024-03-23T09:33:59;4.90;;;1.45;;
39772;SDS011;25451;51.960;6.250;2024-03-23T09:36:24;4.57;;;1.40;;
39772;SDS011;25451;51.960;6.250;2024-03-23T09:38:50;5.67;;;1.00;;
39772;SDS011;25451;51.960;6.250;2024-03-23T09:41:15;4.30;;;0.97;;
39772;SDS011;25451;51.960;6.250;2024-03-23T09:43:40;6.10;;;1.10;;
39772;SDS011;25451;51.960;6.250;2024-03-23T09:46:06;7.83;;;1.10;;
39772;SDS011;25451;51.960;6.250;2024-03-23T09:48:32;6.43;;;1.20;;
39772;SDS011;25451;51.960;6.250;2024-03-23T09:51:04;4.15;;;0.98;;
39772;SDS011;25451;51.960;6.250;2024-03-23T09:53:30;4.37;;;0.90;;
39772;SDS011;25451;51.960;6.250;2024-03-23T09:55:56;3.55;;;0.88;;
39772;SDS011;25451;51.960;6.250;2024-03-23T09:58:23;3.23;;;0.90;;
39772;SDS011;25451;51.960;6.250;2024-03-23T10:00:48;4.97;;;1.00;;
39772;SDS011;25451;51.960;6.250;2024-03-23T10:03:14;6.00;;;1.57;;
39772;SDS011;25451;51.960;6.250;2024-03-23T10:05:39;3.78;;;1.13;;
39772;SDS011;25451;51.960;6.250;2024-03-23T10:10:39;3.45;;;1.00;;
39772;SDS011;25451;51.960;6.250;2024-03-23T10:13:07;5.50;;;1.20;;
39772;SDS011;25451;51.960;6.250;2024-03-23T10:15:33;5.20;;;1.10;;
39772;SDS011;25451;51.960;6.250;2024-03-23T10:18:04;4.18;;;1.08;;
39772;SDS011;25451;51.960;6.250;2024-03-23T10:20:42;3.58;;;1.40;;
39772;SDS011;25451;51.960;6.250;2024-03-23T10:23:15;7.32;;;1.40;;
39772;SDS011;25451;51.960;6.250;2024-03-23T10:25:41;5.40;;;1.30;;
39772;SDS011;25451;51.960;6.250;2024-03-23T10:28:07;9.02;;;1.30;;
39772;SDS011;25451;51.960;6.250;2024-03-23T10:30:32;3.83;;;1.13;;
39772;SDS011;25451;51.960;6.250;2024-03-23T10:33:12;6.60;;;1.40;;
39772;SDS011;25451;51.960;6.250;2024-03-23T10:35:38;6.82;;;1.60;;
39772;SDS011;25451;51.960;6.250;2024-03-23T10:38:06;7.07;;;1.60;;
39772;SDS011;25451;51.960;6.250;2024-03-23T10:40:36;6.80;;;1.88;;
39772;SDS011;25451;51.960;6.250;2024-03-23T10:43:04;6.00;;;1.63;;
39772;SDS011;25451;51.960;6.250;2024-03-23T10:45:33;4.32;;;1.50;;
39772;SDS011;25451;51.960;6.250;2024-03-23T10:47:58;6.20;;;1.40;;
39772;SDS011;25451;51.960;6.250;2024-03-23T10:50:23;9.57;;;1.60;;
39772;SDS011;25451;51.960;6.250;2024-03-23T10:52:49;5.93;;;1.80;;
39772;SDS011;25451;51.960;6.250;2024-03-23T10:55:17;8.82;;;1.80;;
39772;SDS011;25451;51.960;6.250;2024-03-23T10:57:45;4.65;;;1.70;;
39772;SDS011;25451;51.960;6.250;2024-03-23T11:00:14;5.45;;;1.40;;
39772;SDS011;25451;51.960;6.250;2024-03-23T11:02:41;4.43;;;1.00;;
39772;SDS011;25451;51.960;6.250;2024-03-23T11:07:53;5.43;;;1.02;;
39772;SDS011;25451;51.960;6.250;2024-03-23T11:12:50;4.80;;;1.00;;
39772;SDS011;25451;51.960;6.250;2024-03-23T11:15:15;3.13;;;1.10;;
39772;SDS011;25451;51.960;6.250;2024-03-23T11:17:41;6.17;;;1.20;;
39772;SDS011;25451;51.960;6.250;2024-03-23T11:20:06;6.37;;;1.63;;
39772;SDS011;25451;51.960;6.250;2024-03-23T11:22:37;9.27;;;1.55;;
39772;SDS011;25451;51.960;6.250;2024-03-23T11:27:39;6.53;;;1.70;;
39772;SDS011;25451;51.960;6.250;2024-03-23T11:30:11;5.82;;;1.80;;
39772;SDS011;25451;51.960;6.250;2024-03-23T11:32:41;5.50;;;1.53;;
39772;SDS011;25451;51.960;6.250;2024-03-23T11:35:07;5.30;;;1.67;;
39772;SDS011;25451;51.960;6.250;2024-03-23T11:37:34;5.88;;;1.60;;
39772;SDS011;25451;51.960;6.250;2024-03-23T11:40:01;8.07;;;1.75;;
39772;SDS011;25451;51.960;6.250;2024-03-23T11:42:41;6.30;;;1.50;;
39772;SDS011;25451;51.960;6.250;2024-03-23T11:45:09;3.47;;;1.20;;
39772;SDS011;25451;51.960;6.250;2024-03-23T11:47:35;5.63;;;1.27;;
39772;SDS011;25451;51.960;6.250;2024-03-23T11:50:00;8.27;;;1.67;;
39772;SDS011;25451;51.960;6.250;2024-03-23T11:52:25;7.05;;;1.70;;
39772;SDS011;25451;51.960;6.250;2024-03-23T11:54:51;6.23;;;1.50;;
39772;SDS011;25451;51.960;6.250;2024-03-23T11:57:16;8.03;;;1.67;;
39772;SDS011;25451;51.960;6.250;2024-03-23T11:59:41;5.80;;;1.30;;
39772;SDS011;25451;51.960;6.250;2024-03-23T12:02:07;5.47;;;1.67;;
39772;SDS011;25451;51.960;6.250;2024-03-23T12:04:36;6.85;;;1.30;;
39772;SDS011;25451;51.960;6.250;2024-03-23T12:07:36;6.22;;;1.10;;
39772;SDS011;25451;51.960;6.250;2024-03-23T12:10:03;5.40;;;1.40;;
39772;SDS011;25451;51.960;6.250;2024-03-23T12:12:31;6.13;;;0.98;;
39772;SDS011;25451;51.960;6.250;2024-03-23T12:15:03;5.47;;;0.95;;
39772;SDS011;25451;51.960;6.250;2024-03-23T12:17:30;5.57;;;1.15;;
39772;SDS011;25451;51.960;6.250;2024-03-23T12:19:56;3.53;;;1.00;;
39772;SDS011;25451;51.960;6.250;2024-03-23T12:22:21;7.43;;;1.30;;
39772;SDS011;25451;51.960;6.250;2024-03-23T12:24:48;5.63;;;1.20;;
39772;SDS011;25451;51.960;6.250;2024-03-23T12:27:13;6.30;;;1.20;;
39772;SDS011;25451;51.960;6.250;2024-03-23T12:29:39;7.88;;;1.38;;
39772;SDS011;25451;51.960;6.250;2024-03-23T12:32:06;6.70;;;1.25;;
39772;SDS011;25451;51.960;6.250;2024-03-23T12:34:32;6.37;;;1.20;;
39772;SDS011;25451;51.960;6.250;2024-03-23T12:36:57;5.03;;;1.10;;
39772;SDS011;25451;51.960;6.250;2024-03-23T12:39:22;2.92;;;1.02;;
39772;SDS011;25451;51.960;6.250;2024-03-23T12:41:51;7.90;;;1.58;;
39772;SDS011;25451;51.960;6.250;2024-03-23T12:44:17;6.17;;;1.40;;
39772;SDS011;25451;51.960;6.250;2024-03-23T12:46:43;4.55;;;1.33;;
39772;SDS011;25451;51.960;6.250;2024-03-23T12:49:09;5.57;;;1.20;;
39772;SDS011;25451;51.960;6.250;2024-03-23T12:51:35;4.18;;;1.00;;
39772;SDS011;25451;51.960;6.250;2024-03-23T12:54:01;3.38;;;1.35;;
39772;SDS011;25451;51.960;6.250;2024-03-23T12:56:27;6.87;;;1.33;;
39772;SDS011;25451;51.960;6.250;2024-03-23T12:58:55;4.28;;;1.15;;
39772;SDS011;25451;51.960;6.250;2024-03-23T13:01:22;5.65;;;1.25;;
39772;SDS011;25451;51.960;6.250;2024-03-23T13:03:49;5.17;;;1.10;;
39772;SDS011;25451;51.960;6.250;2024-03-23T13:06:16;6.20;;;1.02;;
39772;SDS011;25451;51.960;6.250;2024-03-23T13:08:46;5.75;;;1.30;;
39772;SDS011;25451;51.960;6.250;2024-03-23T13:11:12;5.38;;;1.20;;
39772;SDS011;25451;51.960;6.250;2024-03-23T13:13:38;7.43;;;1.38;;
39772;SDS011;25451;51.960;6.250;2024-03-23T13:16:04;7.83;;;1.40;;
39772;SDS011;25451;51.960;6.250;2024-03-23T13:18:30;7.05;;;1.23;;
39772;SDS011;25451;51.960;6.250;2024-03-23T13:20:57;4.30;;;1.33;;
39772;SDS011;25451;51.960;6.250;2024-03-23T13:23:22;8.00;;;1.37;;
39772;SDS011;25451;51.960;6.250;2024-03-23T13:25:51;6.57;;;1.30;;
39772;SDS011;25451;51.960;6.250;2024-03-23T13:28:20;8.10;;;1.20;;
39772;SDS011;25451;51.960;6.250;2024-03-23T13:30:52;5.45;;;1.20;;
39772;SDS011;25451;51.960;6.250;2024-03-23T13:33:22;6.80;;;1.40;;
39772;SDS011;25451;51.960;6.250;2024-03-23T13:38:17;5.97;;;1.27;;
39772;SDS011;25451;51.960;6.250;2024-03-23T13:43:17;8.30;;;1.30;;
39772;SDS011;25451;51.960;6.250;2024-03-23T13:45:42;5.67;;;1.10;;
39772;SDS011;25451;51.960;6.250;2024-03-23T13:48:08;7.07;;;1.20;;
39772;SDS011;25451;51.960;6.250;2024-03-23T13:50:33;6.70;;;1.40;;
39772;SDS011;25451;51.960;6.250;2024-03-23T13:52:58;5.50;;;1.20;;
39772;SDS011;25451;51.960;6.250;2024-03-23T13:55:23;5.30;;;1.00;;
39772;SDS011;25451;51.960;6.250;2024-03-23T13:57:49;5.20;;;1.63;;
39772;SDS011;25451;51.960;6.250;2024-03-23T14:00:15;4.75;;;1.30;;
39772;SDS011;25451;51.960;6.250;2024-03-23T14:02:43;4.68;;;1.40;;
39772;SDS011;25451;51.960;6.250;2024-03-23T14:05:08;4.23;;;1.23;;
39772;SDS011;25451;51.960;6.250;2024-03-23T14:07:34;5.77;;;1.20;;
39772;SDS011;25451;51.960;6.250;2024-03-23T14:10:02;3.73;;;1.50;;
39772;SDS011;25451;51.960;6.250;2024-03-23T14:12:28;3.63;;;0.90;;
39772;SDS011;25451;51.960;6.250;2024-03-23T14:14:53;2.60;;;0.80;;
39772;SDS011;25451;51.960;6.250;2024-03-23T14:17:18;5.77;;;0.90;;
39772;SDS011;25451;51.960;6.250;2024-03-23T14:19:44;5.47;;;1.00;;
39772;SDS011;25451;51.960;6.250;2024-03-23T14:22:09;4.87;;;1.10;;
39772;SDS011;25451;51.960;6.250;2024-03-23T14:24:34;4.30;;;0.80;;
39772;SDS011;25451;51.960;6.250;2024-03-23T14:27:00;7.37;;;1.00;;
39772;SDS011;25451;51.960;6.250;2024-03-23T14:29:28;2.22;;;0.80;;
39772;SDS011;25451;51.960;6.250;2024-03-23T14:31:53;4.33;;;0.80;;
39772;SDS011;25451;51.960;6.250;2024-03-23T14:34:18;6.07;;;1.00;;
39772;SDS011;25451;51.960;6.250;2024-03-23T14:36:44;4.47;;;1.20;;
39772;SDS011;25451;51.960;6.250;2024-03-23T14:39:09;7.53;;;1.10;;
39772;SDS011;25451;51.960;6.250;2024-03-23T14:41:34;5.73;;;1.20;;
39772;SDS011;25451;51.960;6.250;2024-03-23T14:44:00;5.67;;;1.20;;
39772;SDS011;25451;51.960;6.250;2024-03-23T14:46:25;5.70;;;1.00;;
39772;SDS011;25451;51.960;6.250;2024-03-23T14:48:50;4.90;;;1.00;;
39772;SDS011;25451;51.960;6.250;2024-03-23T14:51:16;3.37;;;0.90;;
39772;SDS011;25451;51.960;6.250;2024-03-23T14:53:44;6.17;;;1.60;;
39772;SDS011;25451;51.960;6.250;2024-03-23T14:56:10;5.32;;;0.90;;
39772;SDS011;25451;51.960;6.250;2024-03-23T14:58:38;5.07;;;1.13;;
39772;SDS011;25451;51.960;6.250;2024-03-23T15:01:04;6.30;;;1.27;;
39772;SDS011;25451;51.960;6.250;2024-03-23T15:03:34;5.78;;;1.05;;
39772;SDS011;25451;51.960;6.250;2024-03-23T15:05:59;6.80;;;1.40;;
39772;SDS011;25451;51.960;6.250;2024-03-23T15:08:25;5.05;;;1.20;;
39772;SDS011;25451;51.960;6.250;2024-03-23T15:10:50;4.67;;;1.00;;
39772;SDS011;25451;51.960;6.250;2024-03-23T15:13:16;4.18;;;0.80;;
39772;SDS011;25451;51.960;6.250;2024-03-23T15:15:42;2.88;;;0.77;;
39772;SDS011;25451;51.960;6.250;2024-03-23T15:18:13;4.57;;;0.80;;
39772;SDS011;25451;51.960;6.250;2024-03-23T15:20:40;4.20;;;0.70;;
39772;SDS011;25451;51.960;6.250;2024-03-23T15:23:28;3.60;;;0.88;;
39772;SDS011;25451;51.960;6.250;2024-03-23T15:25:54;5.13;;;0.97;;
39772;SDS011;25451;51.960;6.250;2024-03-23T15:28:20;4.88;;;1.08;;
39772;SDS011;25451;51.960;6.250;2024-03-23T15:30:46;3.88;;;1.00;;
39772;SDS011;25451;51.960;6.250;2024-03-23T15:33:12;4.77;;;1.20;;
39772;SDS011;25451;51.960;6.250;2024-03-23T15:35:37;3.10;;;1.20;;
39772;SDS011;25451;51.960;6.250;2024-03-23T15:38:02;6.60;;;1.30;;
39772;SDS011;25451;51.960;6.250;2024-03-23T15:40:28;6.63;;;1.10;;
39772;SDS011;25451;51.960;6.250;2024-03-23T15:42:54;3.90;;;1.10;;
39772;SDS011;25451;51.960;6.250;2024-03-23T15:45:19;8.10;;;1.40;;
39772;SDS011;25451;51.960;6.250;2024-03-23T15:47:44;5.20;;;1.00;;
39772;SDS011;25451;51.960;6.250;2024-03-23T15:50:09;6.47;;;1.20;;